Airfield :
LOGIN :

Register | Disclaimer

   EN    FR    IT 

 










Legend :    VFR   Marginal VFR   IFR   Intensive IFR   Very Intensive IFR
Visi :
Ceiling :
>= 8 km
>= 3000ft
5 to 8 km
1000 to 3000 ft
1500m to 5 km
500 to 1000 ft
800 to 1500m
200 to 500 ft
< 800m
< 200 ft
Symbols :   Thunderstorms  Fog  Heavy snow  Heavy precipitations  Wind > 20 kt
SIGMETs :     Misc.  Thunderstorms  Icing  Turbulence  Mountain Waves  Volcanic Ashes






- Airport Elevation : 56 ft


LPOV - Ovar Air Base

CURRENT METAR :
  • 241200Z 32010KT 290V360 9999 SCT020 SCT030 12/08 Q1019

EXPIRED METARs :
  • 241100Z 32010KT 280V360 9999 SCT020 13/08 Q1019
  • 241000Z 02008KT 350V050 9999 -SHRA SCT020 SCT030 10/08 Q1019
  • 240900Z VRB02KT 9999 FEW020 10/08 Q1018
  • 240800Z 35014KT 9999 SCT020 BKN030 11/08 Q1017

TAF TAF LPOV
Valid from the 24 at 12:00 until the 25 at 12:00 UTC


241108Z 2412/2512 32012KT 9999 FEW015 SCT025
TEMPO 2412/2420 5000 -SHRA BKN014 FEW025CB
BECMG 2417/2419 26015KT
TEMPO 2420/2512 3000 RADZ BR BKN009 FEW018CB
TEMPO 2500/2512 27015G30KT



MET'MAP, your aeronautical weather chart ! - Copyright ORBIFLY December 2007 - Disclaimer

ORBIFLY MET'MAP TEAM :

Programming & Development : Alexandra Zaïnal
Original concept : Baudouin d'Aumeries
Technical & hardware support : Manuel Goepfert
Assistance : Marc-Olivier Méhu




SOURCES & CREDITS :

   NOAA